Woodland Park Mayors Cup 10K                          
                                   InProgress                                   
                                 August 12, 2017                                

If you have questions about the results, please send an e-mail to
raceresults@pprrun.org

If you have any input or questions concerning the conduct of the race
contact Cindy Keating at the Woodland Park Parks & Recreation at 687-5225.

Course: Both courses are slightly hilly. The 5K is entirely on paved roads.
At about the 1.25 mile mark the 10K splits away from the common
course and uses the Centennial Trail (macadam) that runs parralel to
Highway 67. This portion is an out and back with several short
hills. The elevation of both courses is in excess of 8,500 feet.

Weather: Sunny and warm, temps in the 60s and rising.

OPlc GPlc AGPlc AGrp   Bib Name                   Age Sex City                 St Gun     Chip    Pace    
   1    1     1 M20-29 193 Stephen VanGampleare    27  M  Colorado Springs     CO 0:36:14 0:36:14 0:05:51 
                            Award Winner: Overall Male  -- 1

   2    2     1 M30-39 407 Nicholas Parton         31  M  Colorado Springs     CO 0:37:58 0:37:57 0:06:07 
                            Award Winner: Age-Group Male 30 - 39 -- 1

   3    3     1 M40-49  90 Gerald Romero           45  M  Colorado Springs     CO 0:38:14 0:38:13 0:06:10 
                            Award Winner: Age-Group Male 40 - 49 -- 1

   4    4     2 M20-29 443 Jesse Wesolowski        26  M  Manitou Springs      CO 0:38:54 0:38:50 0:06:16 
                            Award Winner: Age-Group Male 20 - 29 -- 1

   5    5     1 M15-19 471 Richie Roberds          16  M  Colorado Springs     CO 0:40:08 0:40:07 0:06:28 
                            Award Winner: Age-Group Male 15 - 19 -- 1

   6    6     2 M15-19 195 Troy Cournoyer          18  M  Colorado Springs     CO 0:40:49 0:40:48 0:06:35 
   7    7     2 M40-49  56 Duane Roberson          45  M  Colorado Springs     CO 0:41:01 0:41:00 0:06:37 
   8    8     2 M30-39  24 Nate Reisch             34  M  Windsor              CO 0:41:15 0:41:14 0:06:39 
   9    9     3 M40-49 197 Grant Drummond          40  M  Woodland Park        CO 0:41:38 0:41:37 0:06:43 
  10   10     4 M40-49 479 Robbie Keyser           48  M  Colorado Springs     CO 0:43:53 0:43:46 0:07:04 
  11   11     1 M50-59 425 Michael McGann          50  M  Colorado Springs     CO 0:44:18 0:44:16 0:07:08 
                            Award Winner: Age-Group Male 50 - 59 -- 1

  12   12     5 M40-49 437 Todd Weaver             47  M  Colorado Springs     CO 0:44:36 0:44:31 0:07:11 
  13   13     3 M30-39 100 Mark Lendzion           35  M  Colorado Springs     CO 0:44:48 0:44:42 0:07:13 
  14   14     4 M30-39 192 Steve Crumpler          35  M  Colorado Springs     CO 0:46:03 0:45:59 0:07:25 
  15   15     6 M40-49 168 Jay Watts               45  M  Falcon               CO 0:46:28 0:46:23 0:07:29 
  16   16     2 M50-59  80 Alex Escarcega          53  M  Peyton               CO 0:46:32 0:46:32 0:07:30 
  17   17     3 M50-59 453 Paul Sullivan           50  M  Colorado Springs     CO 0:46:54 0:46:50 0:07:33 
  18   18     3 M20-29 111 Christopher Brown       29  M  Colorado Springs     CO 0:47:14 0:47:09 0:07:36 
  19   19     7 M40-49  83 Dave Marques            42  M  Colorado Springs     CO 0:47:21 0:47:18 0:07:38 
  20    1     1 F30-39  40 Theresa Pitman          36  F  Woodland Park        CO 0:47:46 0:47:43 0:07:42 
                            Award Winner: Overall Female  -- 1

  21   20     4 M50-59 480 Johnny King-Marino      56  M  Doylestown           PA 0:48:20 0:48:20 0:07:48 
  22   21     8 M40-49 122 Michael Hartley         48  M  Divide               CO 0:48:38 0:48:35 0:07:50 
  23    2     1 F20-29 429 Alyssa France           26  F  Colorado Springs     CO 0:49:05 0:48:46 0:07:52 
                            Award Winner: Age-Group Female 20 - 29 -- 1

  24    3     2 F30-39   8 Carissa Maryott         38  F  Divide               CO 0:49:18 0:49:06 0:07:55 
                            Award Winner: Age-Group Female 30 - 39 -- 1

  25   22     1 M60-69 448 Scott Sells             61  M  Colorado Springs     CO 0:49:33 0:49:31 0:07:59 
                            Award Winner: Age-Group Male 60 - 69 -- 1

  26   23     9 M40-49 184 Robert Little           48  M  Peyton               CO 0:50:32 0:50:15 0:08:06 
  27   24     4 M20-29  68 Donald Byers            20  M  Colorado Springs     CO 0:50:29 0:50:24 0:08:08 
  28   25    10 M40-49  62 Robert Comstock         42  M  Colorado Springs     CO 0:50:35 0:50:29 0:08:09 
  29   26     5 M30-39 163 Jeff Nyczak             35  M  Wellington           CO 0:50:35 0:50:33 0:08:09 
  30    4     3 F30-39  57 Jaclyn Roberson         36  F  Colorado Springs     CO 0:50:49 0:50:44 0:08:11 
  31   27     5 M50-59  81 Bren Triplett           53  M  Colorado Springs     CO 0:50:55 0:50:47 0:08:11 
  32   28     6 M50-59 419 Larry Seidman           54  M  Colorado Springs     CO 0:52:48 0:52:48 0:08:31 
  33    5     1 F50-59 426 Jenifer Ping            54  F  Colorado Springs     CO 0:53:58 0:53:53 0:08:41 
                            Award Winner: Age-Group Female 50 - 59 -- 1

  34   29    11 M40-49 145 Michael Dewall          49  M  Woodland Park        CO 0:54:13 0:53:55 0:08:42 
  35   30     7 M50-59 401 David Mulligan          56  M  Colorado Springs     CO 0:54:19 0:54:16 0:08:45 
  36    6     1 F40-49 400 Danielle Spivey         47  F  Colorado Springs     CO 0:54:32 0:54:29 0:08:47 
                            Award Winner: Age-Group Female 40 - 49 -- 1

  37   31    12 M40-49 242 Tom Castle              46  M  Colorado Springs     CO 0:54:41 0:54:37 0:08:49 
  38   32     2 M60-69 179 Louie Serna             60  M  Colorado Springs     CO 0:54:47 0:54:42 0:08:49 
  39   33     8 M50-59  55 Josh Holer              55  M  Colorado Springs     CO 0:54:49 0:54:49 0:08:50 
  40   34     3 M60-69 140 Jon Cornick             61  M  Colorado Springs     CO 0:55:17 0:55:17 0:08:55 
  41   35     5 M20-29  51 Roylan Piloto           24  M  Colorado Springs     CO 0:55:41 0:55:37 0:08:58 
  42    7     4 F30-39 158 Chantel Anderson        32  F  Colorado Springs     CO 0:55:50 0:55:42 0:08:59 
  43   36     9 M50-59  21 Kenneth Buckey          55  M  Colorado Springs     CO 0:55:59 0:55:49 0:09:00 
  44    8     5 F30-39 112 Emily Brown             30  F  Colorado Springs     CO 0:56:07 0:55:58 0:09:02 
  45   37    13 M40-49 123 Eric Harding            45  M  Peyton               CO 0:56:48 0:56:46 0:09:09 
  46   38     6 M20-29 477 Andy Estrada            22  M  Colorado Springs     CO 0:56:53 0:56:47 0:09:10 
  47    9     2 F40-49 118 Gladys Felix-Mendoza    40  F  Colorado Springs     CO 0:57:08 0:56:58 0:09:11 
  48   39     6 M30-39 420 Ryan Schultz            32  M  Woodland Park        CO 0:57:27 0:57:16 0:09:14 
  49   40    10 M50-59 107 Will Snyder             52  M  Colorado Springs     CO 0:57:58 0:57:52 0:09:20 
  50   10     2 F50-59 167 Kimberly Reece          56  F  Colorado Springs     CO 0:58:19 0:58:09 0:09:23 
  51   11     6 F30-39 109 Carrie Heimmer          33  F  Fort Lupton          CO 0:58:56 0:58:31 0:09:26 
  52   12     1 F10-14 458 Calla Chou              11  F  Woodland Park        CO 0:58:38 0:58:35 0:09:27 
                            Award Winner: Age-Group Female 10 - 14 -- 1

  53   41     1 M01-09 466 Hudson Chou              8  M  Woodland Park        CO 0:58:42 0:58:35 0:09:27 
                            Award Winner: Age-Group Male 1 - 9 -- 1
                            New Age-Group Course Record!!! Age-Group: M1-9
                            (No previous record in this category.)

  54   42     4 M60-69 166 Thomas Heffernan        65  M  Woodland Park        CO 0:58:46 0:58:39 0:09:28 
  55   43     7 M30-39  39 Brandon Heser           37  M  Colorado Springs     CO 0:59:14 0:58:53 0:09:30 
  56   44     1 M70-98  22 Darrell Weaver          71  M  Colorado Springs     CO 0:59:32 0:59:22 0:09:35 
                            Award Winner: Age-Group Male 70 - 98 -- 1

  57   13     3 F40-49 108 Tammy Jacobson          44  F  Colorado Springs     CO 0:59:29 0:59:23 0:09:35 
  58   14     4 F40-49  26 Lynne Day               49  F  Colorado Springs     CO 0:59:40 0:59:33 0:09:36 
  59   15     2 F20-29  77 Brittany Norris         28  F  Colorado Springs     CO 1:01:22 1:01:12 0:09:52 
  60   16     3 F20-29 101 Karen Ahumada           27  F  Colorado Springs     CO 1:01:34 1:01:28 0:09:55 
  61   45     5 M60-69  93 Michael Olson           60  M  Victor               CO 1:03:29 1:02:57 0:10:09 
  62   46     2 M70-98 150 Charles Schroeder       77  M  Woodland Park        CO 1:03:36 1:03:32 0:10:15 
  63   17     7 F30-39  54 Jeana Connaughton       38  F  Colorado Springs     CO 1:04:06 1:03:44 0:10:17 
  64   18     5 F40-49 157 Amelia Vrabel           41  F  Colorado Springs     CO 1:04:09 1:03:51 0:10:18 
  65   47    14 M40-49 114 Robert Gance            49  M  Lake George          CO 1:04:14 1:03:51 0:10:18 
  66   48    15 M40-49  23 Russ McGuire            42  M  Colorado Springs     CO 1:05:09 1:04:58 0:10:29 
  67   19     1 F60-69  70 Vicki McCann            60  F  Colorado Springs     CO 1:05:43 1:05:30 0:10:34 
                            Award Winner: Age-Group Female 60 - 69 -- 1

  68   20     6 F40-49  79 Dawn Escarcega          41  F  Peyton               CO 1:05:45 1:05:38 0:10:35 
  69   49     6 M60-69 454 John Klein              61  M  Colorado Springs     CO 1:06:22 1:06:06 0:10:40 
  70   21     7 F40-49  91 Kari Taylor-Romero      40  F  Colorado Springs     CO 1:09:55 1:09:46 0:11:15 
  71   22     2 F60-69 152 Suzanne Shaw            63  F  Colorado Springs     CO 1:10:35 1:10:17 0:11:20 
  72   50    16 M40-49 119 Julius Mendoza          40  M  Colorado Springs     CO 1:11:26 1:11:00 0:11:27 
  73   23     3 F50-59 176 Monique French          50  F  Monument             CO 1:12:13 1:11:49 0:11:35 
  74   24     3 F60-69  92 Barbara Good            62  F  Colorado Springs     CO 1:12:13 1:11:51 0:11:35 
  75   25     8 F30-39 132 Kara Beiswanger         36  F  Colorado Springs     CO 1:13:46 1:13:24 0:11:50 
  76   51     8 M30-39 445 Chris Beiswanger        38  M  Colorado Springs     CO 1:13:46 1:13:25 0:11:50 
  77   26     9 F30-39  65 Jessica Griser          31  F  Colorado Springs     CO 1:13:35 1:13:27 0:11:51 
  78   27    10 F30-39 177 Michelle Mathis         34  F  Colorado Springs     CO 1:13:53 1:13:30 0:11:51 
  79   52     7 M60-69  59 Jim Thiessen            65  M  Colorado Springs     CO 1:14:02 1:13:55 0:11:55 
  80   53    17 M40-49 178 Mark Zandarski          41  M  Colorado Springs     CO 1:14:23 1:14:02 0:11:56 
  81   28     4 F20-29 134 Brianne Simmons         29  F  Colorado Springs     CO 1:16:28 1:16:22 0:12:19 
  82   29     8 F40-49 402 Makala Letsche          42  F  Falcon               CO 1:18:40 1:18:32 0:12:40 
  83   30    11 F30-39  25 Joanna Corrigan         38  F  Wyoming              MI 1:26:57 1:26:42 0:13:59 
  84   31    12 F30-39 171 Dianna Piteo            39  F  Colorado Springs     CO 1:30:23 1:30:16 0:14:34